Time;durP1;ratioP1;P1;durP2;ratioP2;P2;SDS_P1;SDS_P2;PMS_P1;PMS_P2;Temp;Humidity;BMP_temperature;BMP_pressure;BME280_temperature;BME280_humidity;BME280_pressure;Samples;Min_cycle;Max_cycle;Signal;HPM_P1;HPM_P2
2024/01/31 06:06:01;;;;;;;;;;;;;;;-2.74;100.00;101566.65;1831469;76;20133;-69
2024/01/31 06:08:28;;;;;;;;;;;;;;;-2.69;100.00;101563.79;1830746;76;20182;-71
2024/01/31 06:10:59;;;;;;;;;;;;;;;-2.64;100.00;101568.99;1838061;77;20144;-71
2024/01/31 06:13:23;;;;;;;;;;;;;;;-2.56;100.00;101568.75;1831782;76;20173;-78
2024/01/31 06:15:50;;;;;;;;;;;;;;;-2.49;100.00;101559.14;1831914;77;20209;-67
2024/01/31 06:18:16;;;;;;;;;;;;;;;-2.38;100.00;101564.44;1821259;77;20136;-69
2024/01/31 06:20:44;;;;;;;;;;;;;;;-2.27;100.00;101555.73;1834539;77;20161;-69
2024/01/31 06:23:11;;;;;;;;;;;;;;;-2.16;100.00;101560.23;1833287;76;20410;-72
2024/01/31 06:25:37;;;;;;;;;;;;;;;-2.06;100.00;101563.84;1823706;77;20102;-69
2024/01/31 06:28:05;;;;;;;;;;;;;;;-1.97;100.00;101554.20;1820264;78;20101;-69
2024/01/31 06:30:34;;;;;;;;;;;;;;;-1.90;100.00;101554.34;1813393;77;20100;-68
2024/01/31 06:33:06;;;;;;;;;;;;;;;-1.82;100.00;101549.39;1813461;77;20152;-71
2024/01/31 06:35:32;;;;;;;;;;;;;;;-1.74;100.00;101550.39;1844000;77;20552;-70
2024/01/31 06:37:59;;;;;;;;;;;;;;;-1.67;100.00;101556.06;1804897;78;20386;-71
2024/01/31 06:40:25;;;;;;;;;;;;;;;-1.58;100.00;101548.95;1785084;78;20169;-69
2024/01/31 06:42:52;;;;;;;;;;;;;;;-1.51;100.00;101547.81;1785936;78;20162;-69
2024/01/31 06:45:18;;;;;;;;;;;;;;;-1.43;100.00;101556.47;1803207;78;20093;-72
2024/01/31 06:47:45;;;;;;;;;;;;;;;-1.36;100.00;101550.63;1764038;80;20139;-71
2024/01/31 06:50:11;;;;;;;;;;;;;;;-1.29;100.00;101550.33;1762983;80;20372;-70
2024/01/31 06:52:37;;;;;;;;;;;;;;;-1.22;100.00;101553.84;1756374;80;20168;-67
2024/01/31 06:55:05;;;;;;;;;;;;;;;-1.17;100.00;101550.50;1767232;80;20094;-71
2024/01/31 06:57:33;;;;;;;;;;;;;;;-1.09;100.00;101551.48;1775215;79;20086;-79
2024/01/31 06:59:59;;;;;;;;;;;;;;;-1.02;100.00;101549.88;1790248;80;20231;-72
2024/01/31 07:02:26;;;;;;;;;;;;;;;-0.94;100.00;101546.17;1807298;78;20167;-64
2024/01/31 07:04:52;;;;;;;;;;;;;;;-0.88;100.00;101543.70;1785992;79;20207;-73
2024/01/31 07:07:18;;;;;;;;;;;;;;;-0.81;100.00;101541.27;1778087;79;20143;-69
2024/01/31 07:39:56;;;;;;;;;;;;;;;-0.28;100.00;101497.58;1763920;80;20118;-82
2024/01/31 07:42:22;;;;;;;;;;;;;;;-0.16;100.00;101501.56;1759413;79;20133;-79
2024/01/31 08:07:45;;;;;;;;;;;;;;;1.04;100.00;101498.31;1775362;79;20179;-69
2024/01/31 08:10:12;;;;;;;;;;;;;;;1.07;100.00;101495.34;1769832;79;20096;-76
2024/01/31 08:12:41;;;;;;;;;;;;;;;1.12;100.00;101494.09;1766077;79;20096;-74
2024/01/31 08:15:08;;;;;;;;;;;;;;;1.14;100.00;101493.25;1770133;79;20125;-72
2024/01/31 08:17:35;;;;;;;;;;;;;;;1.21;100.00;101495.39;1732238;79;20114;-76
2024/01/31 08:20:03;;;;;;;;;;;;;;;1.27;100.00;101499.28;1767220;80;20135;-78
2024/01/31 08:22:33;;;;;;;;;;;;;;;1.35;100.00;101489.92;1772809;79;20096;-76
2024/01/31 08:24:59;;;;;;;;;;;;;;;1.43;100.00;101493.81;1774352;79;20105;-69
2024/01/31 08:27:28;;;;;;;;;;;;;;;1.49;100.00;101484.44;1755973;80;20126;-70
2024/01/31 08:29:55;;;;;;;;;;;;;;;1.61;100.00;101490.02;1768786;79;20133;-71
2024/01/31 08:32:22;;;;;;;;;;;;;;;1.68;100.00;101489.19;1765102;79;20105;-70
2024/01/31 08:34:48;;;;;;;;;;;;;;;1.71;100.00;101488.34;1782876;80;20159;-76
2024/01/31 08:37:16;;;;;;;;;;;;;;;1.63;100.00;101482.75;1786055;79;20135;-72
2024/01/31 08:39:43;;;;;;;;;;;;;;;1.57;100.00;101485.75;1767982;79;20100;-68
2024/01/31 08:42:09;;;;;;;;;;;;;;;1.52;100.00;101488.72;1770090;79;20417;-73
2024/01/31 08:44:36;;;;;;;;;;;;;;;1.47;100.00;101491.69;1770668;80;20098;-69
2024/01/31 08:47:03;;;;;;;;;;;;;;;1.48;100.00;101489.55;1773445;79;20161;-75
2024/01/31 08:49:29;;;;;;;;;;;;;;;1.51;100.00;101480.59;1769369;81;20130;-73
2024/01/31 08:51:56;;;;;;;;;;;;;;;1.54;100.00;101478.03;1768807;80;20409;-73
2024/01/31 08:54:23;;;;;;;;;;;;;;;1.59;100.00;101475.06;1777217;80;20867;-79
2024/01/31 08:56:49;;;;;;;;;;;;;;;1.64;100.00;101473.34;1765758;80;20132;-82
2024/01/31 08:59:17;;;;;;;;;;;;;;;1.73;100.00;101467.38;1773778;80;20137;-76
2024/01/31 09:34:45;;;;;;;;;;;;;;;2.29;100.00;101420.80;1774038;79;20108;-71
2024/01/31 09:37:12;;;;;;;;;;;;;;;2.28;100.00;101415.23;1770793;79;20122;-75
2024/01/31 09:39:38;;;;;;;;;;;;;;;2.28;100.00;101412.66;1775675;79;20134;-67
2024/01/31 09:42:05;;;;;;;;;;;;;;;2.29;100.00;101407.09;1770782;80;20175;-78
2024/01/31 09:44:32;;;;;;;;;;;;;;;2.30;100.00;101408.38;1780216;79;20178;-77
2024/01/31 09:46:59;;;;;;;;;;;;;;;2.33;100.00;101399.81;1766223;80;20667;-68
2024/01/31 09:49:25;;;;;;;;;;;;;;;2.36;100.00;101403.66;1759918;80;20094;-69
2024/01/31 09:52:01;;;;;;;;;;;;;;;2.38;100.00;101389.09;1760502;80;20436;-75
2024/01/31 10:14:47;;;;;;;;;;;;;;;2.66;100.00;101361.19;1767930;80;20993;-71
2024/01/31 10:17:19;;;;;;;;;;;;;;;2.72;100.00;101353.03;1775990;79;20150;-75
2024/01/31 10:19:46;;;;;;;;;;;;;;;2.74;100.00;101355.17;1769463;80;20153;-65
2024/01/31 10:22:13;;;;;;;;;;;;;;;2.78;100.00;101356.45;1771603;80;20496;-71
2024/01/31 10:24:40;;;;;;;;;;;;;;;2.82;100.00;101352.11;1770170;79;20162;-74
2024/01/31 10:27:08;;;;;;;;;;;;;;;2.86;100.00;101356.39;1771555;79;20105;-76
2024/01/31 10:29:37;;;;;;;;;;;;;;;2.90;100.00;101351.23;1776683;80;20366;-72
2024/01/31 10:32:04;;;;;;;;;;;;;;;2.91;100.00;101347.80;1767289;79;20423;-75
2024/01/31 10:34:30;;;;;;;;;;;;;;;2.95;100.00;101349.94;1768684;80;20130;-72
2024/01/31 10:36:57;;;;;;;;;;;;;;;2.97;100.00;101346.92;1767855;79;20112;-64
2024/01/31 10:39:23;;;;;;;;;;;;;;;3.01;100.00;101347.34;1766136;79;20421;-66
2024/01/31 10:41:49;;;;;;;;;;;;;;;3.07;100.00;101350.32;1768059;79;20159;-72
2024/01/31 11:15:04;;;;;;;;;;;;;;;3.21;100.00;101322.34;1770053;80;20171;-84
2024/01/31 11:17:35;;;;;;;;;;;;;;;3.21;100.00;101315.91;1768977;80;20486;-65
2024/01/31 11:20:02;;;;;;;;;;;;;;;3.23;100.00;101314.62;1773562;79;20103;-71
2024/01/31 11:22:29;;;;;;;;;;;;;;;3.23;100.00;101316.76;1769382;80;20107;-80
2024/01/31 11:24:58;;;;;;;;;;;;;;;3.23;100.00;101305.17;1776263;80;20159;-72
2024/01/31 11:27:25;;;;;;;;;;;;;;;3.25;100.00;101311.60;1765200;79;20598;-66
2024/01/31 11:29:52;;;;;;;;;;;;;;;3.25;100.00;101307.31;1761370;79;20637;-65
2024/01/31 11:32:19;;;;;;;;;;;;;;;3.25;100.00;101297.02;1776569;79;20193;-66
2024/01/31 11:34:48;;;;;;;;;;;;;;;3.27;100.00;101300.44;1772799;81;20103;-74
2024/01/31 11:37:15;;;;;;;;;;;;;;;3.28;100.00;101293.57;1774957;79;20441;-62
2024/01/31 11:39:41;;;;;;;;;;;;;;;3.29;100.00;101293.56;1791664;79;20104;-62
2024/01/31 11:42:08;;;;;;;;;;;;;;;3.33;100.00;101290.53;1801384;79;20128;-72
2024/01/31 11:44:35;;;;;;;;;;;;;;;3.38;100.00;101293.09;1783680;79;20401;-65
2024/01/31 11:47:02;;;;;;;;;;;;;;;3.42;100.00;101295.63;1772724;80;20151;-70
2024/01/31 11:49:30;;;;;;;;;;;;;;;3.44;100.00;101292.61;1736859;81;20106;-69
2024/01/31 11:51:57;;;;;;;;;;;;;;;3.45;100.00;101290.47;1764188;81;20106;-74
2024/01/31 11:54:24;;;;;;;;;;;;;;;3.49;100.00;101290.02;1758031;80;20193;-81
2024/01/31 11:56:51;;;;;;;;;;;;;;;3.50;100.00;101284.85;1770739;79;20096;-72
2024/01/31 11:59:18;;;;;;;;;;;;;;;3.50;100.00;101280.99;1767360;80;20160;-67
2024/01/31 12:01:44;;;;;;;;;;;;;;;3.50;100.00;101278.41;1766085;80;20108;-79
2024/01/31 12:04:12;;;;;;;;;;;;;;;3.50;100.00;101271.98;1770599;79;20127;-72
2024/01/31 12:06:38;;;;;;;;;;;;;;;3.51;100.00;101266.39;1768567;81;20140;-81
2024/01/31 12:09:05;;;;;;;;;;;;;;;3.51;100.00;101265.96;1766092;80;20177;-68
2024/01/31 12:11:35;;;;;;;;;;;;;;;3.54;100.00;101256.92;1772784;80;20140;-73
2024/01/31 12:14:01;;;;;;;;;;;;;;;3.55;100.00;101255.20;1774055;80;20159;-73
2024/01/31 12:16:40;;;;;;;;;;;;;;;3.55;100.00;101250.05;1773887;79;20105;-69
2024/01/31 12:34:22;;;;;;;;;;;;;;;3.59;100.00;101243.58;1753225;80;20138;-66
2024/01/31 12:36:49;;;;;;;;;;;;;;;3.61;100.00;101240.53;1772480;80;20187;-67
2024/01/31 12:39:19;;;;;;;;;;;;;;;3.64;100.00;101237.08;1764033;80;20385;-66
2024/01/31 12:41:43;;;;;;;;;;;;;;;3.67;100.00;101237.91;1774430;80;20204;-67
2024/01/31 12:44:09;;;;;;;;;;;;;;;3.68;100.00;101235.75;1772100;80;20175;-69
2024/01/31 12:46:36;;;;;;;;;;;;;;;3.72;100.00;101235.73;1771728;80;20982;-65
2024/01/31 12:49:02;;;;;;;;;;;;;;;3.74;100.00;101237.42;1769884;79;20104;-74
2024/01/31 12:51:28;;;;;;;;;;;;;;;3.73;100.00;101234.42;1767406;80;20127;-68
2024/01/31 12:53:55;;;;;;;;;;;;;;;3.72;100.00;101237.88;1764068;79;20392;-73
2024/01/31 12:56:21;;;;;;;;;;;;;;;3.69;100.00;101236.61;1758679;79;20133;-66
2024/01/31 12:58:47;;;;;;;;;;;;;;;3.68;100.00;101227.17;1775403;81;20099;-66
2024/01/31 13:01:15;;;;;;;;;;;;;;;3.67;100.00;101231.47;1775269;81;20413;-69
2024/01/31 13:03:41;;;;;;;;;;;;;;;3.68;100.00;101225.45;1774778;80;20387;-68
2024/01/31 13:06:07;;;;;;;;;;;;;;;3.68;100.00;101231.89;1776576;79;20098;-64
2024/01/31 13:25:50;;;;;;;;;;;;;;;3.56;100.00;101198.97;1781682;79;20194;-75
2024/01/31 13:33:17;;;;;;;;;;;;;;;3.54;100.00;101186.55;1764673;80;20133;-69
2024/01/31 13:35:48;;;;;;;;;;;;;;;3.53;100.00;101184.40;1755546;80;20090;-75
2024/01/31 13:38:17;;;;;;;;;;;;;;;3.54;100.00;101176.24;1798226;78;20157;-72
2024/01/31 13:40:47;;;;;;;;;;;;;;;3.55;100.00;101174.09;1740443;80;20217;-68
2024/01/31 13:53:32;;;;;;;;;;;;;;;3.42;100.00;101162.18;1754355;80;20111;-73
2024/01/31 13:56:02;;;;;;;;;;;;;;;3.39;100.00;101158.34;1768763;79;20098;-80
2024/01/31 14:03:37;;;;;;;;;;;;;;;3.26;100.00;101154.58;1779162;80;20132;-76
2024/01/31 14:06:05;;;;;;;;;;;;;;;3.21;100.00;101151.62;1796084;78;20151;-76
2024/01/31 14:11:07;;;;;;;;;;;;;;;3.12;100.00;101153.86;1795035;80;20094;-75
2024/01/31 14:13:34;;;;;;;;;;;;;;;3.07;100.00;101149.17;1799615;78;20484;-73
2024/01/31 14:16:06;;;;;;;;;;;;;;;3.03;100.00;101146.64;1805810;78;20442;-77
2024/01/31 14:18:34;;;;;;;;;;;;;;;3.00;100.00;101148.80;1793399;78;20167;-79
2024/01/31 14:21:01;;;;;;;;;;;;;;;2.96;100.00;101149.68;1786358;79;20159;-79
2024/01/31 14:23:28;;;;;;;;;;;;;;;2.90;100.00;101140.28;1799470;78;20156;-76
2024/01/31 14:25:55;;;;;;;;;;;;;;;2.85;100.00;101142.03;1769350;80;20402;-73
2024/01/31 14:28:23;;;;;;;;;;;;;;;2.84;100.00;101137.75;1791745;78;20179;-78
2024/01/31 14:30:51;;;;;;;;;;;;;;;2.80;100.00;101134.77;1760051;79;20136;-79
